Time;durP1;ratioP1;P1;durP2;ratioP2;P2;SDS_P1;SDS_P2;PMS_P1;PMS_P2;Temp;Humidity;BMP_temperature;BMP_pressure;BME280_temperature;BME280_humidity;BME280_pressure;Samples;Min_cycle;Max_cycle;Signal;HPM_P1;HPM_P2
2022/08/13 00:02:24;;;;;;;;;;;563.90;1971.20;;;;;;5071961;28;19924;-71
2022/08/13 00:05:05;;;;;;;;;;;563.80;1971.20;;;;;;5071599;28;20010;-70
2022/08/13 00:07:31;;;;;;;;;;;563.70;1971.20;;;;;;5071661;28;19908;-69
2022/08/13 00:09:58;;;;;;;;;;;563.70;1996.80;;;;;;5071906;28;19948;-60
2022/08/13 00:15:12;;;;;;;;;;;563.70;1996.80;;;;;;5071950;28;19922;-66
2022/08/13 00:17:39;;;;;;;;;;;563.60;2022.40;;;;;;5071771;28;19961;-70
2022/08/13 00:20:06;;;;;;;;;;;563.60;2048.00;;;;;;5071597;28;20436;-71
2022/08/13 00:22:32;;;;;;;;;;;563.50;2048.00;;;;;;5071347;28;20003;-69
2022/08/13 00:25:00;;;;;;;;;;;563.40;2073.60;;;;;;5071428;28;19916;-58
2022/08/13 00:27:26;;;;;;;;;;;563.40;2073.60;;;;;;5071810;28;19909;-70
2022/08/13 00:29:54;;;;;;;;;;;563.40;2073.60;;;;;;5071409;28;20007;-71
2022/08/13 00:32:21;;;;;;;;;;;563.40;2099.20;;;;;;5071388;28;19920;-70
2022/08/13 00:34:49;;;;;;;;;;;563.30;2099.20;;;;;;5071340;28;19920;-70
2022/08/13 00:37:14;;;;;;;;;;;563.30;2099.20;;;;;;5071471;28;19915;-72
2022/08/13 00:39:40;;;;;;;;;;;563.30;2099.20;;;;;;5071116;28;20350;-69
2022/08/13 00:42:06;;;;;;;;;;;563.30;2099.20;;;;;;5071331;28;19908;-68
2022/08/13 00:44:31;;;;;;;;;;;563.40;2099.20;;;;;;5071392;28;19915;-57
2022/08/13 00:49:42;;;;;;;;;;;563.40;2099.20;;;;;;5071348;28;19915;-70
2022/08/13 00:52:10;;;;;;;;;;;563.40;2124.80;;;;;;5070903;28;19916;-61
2022/08/13 00:54:36;;;;;;;;;;;563.30;2150.40;;;;;;5071146;28;19958;-63
2022/08/13 00:57:03;;;;;;;;;;;563.30;2150.40;;;;;;5071125;28;19909;-67
2022/08/13 00:59:29;;;;;;;;;;;563.30;2176.00;;;;;;5071027;28;20239;-60
2022/08/13 01:01:55;;;;;;;;;;;563.30;2201.60;;;;;;5071111;28;19924;-70
2022/08/13 01:04:21;;;;;;;;;;;563.20;2227.20;;;;;;5070943;28;19915;-69
2022/08/13 01:06:48;;;;;;;;;;;563.20;2252.80;;;;;;5070914;28;19920;-59
2022/08/13 01:09:14;;;;;;;;;;;563.20;2252.80;;;;;;5071193;28;19908;-70
2022/08/13 01:11:40;;;;;;;;;;;563.20;2278.40;;;;;;5070899;28;19923;-63
2022/08/13 01:14:08;;;;;;;;;;;563.20;2304.00;;;;;;5071106;28;19909;-70
2022/08/13 01:16:36;;;;;;;;;;;563.30;2304.00;;;;;;5070920;28;19909;-59
2022/08/13 01:19:09;;;;;;;;;;;563.20;2329.60;;;;;;5070891;28;19916;-70
2022/08/13 01:21:39;;;;;;;;;;;563.30;2329.60;;;;;;5070758;28;19979;-69
2022/08/13 01:24:06;;;;;;;;;;;563.30;2329.60;;;;;;5070903;28;19914;-72
2022/08/13 01:26:32;;;;;;;;;;;563.30;2329.60;;;;;;5070698;28;19908;-73
2022/08/13 01:29:01;;;;;;;;;;;563.30;2380.80;;;;;;5070774;28;19962;-58
2022/08/13 01:31:27;;;;;;;;;;;563.20;2380.80;;;;;;5070649;28;19927;-69
2022/08/13 01:33:58;;;;;;;;;;;538.50;2406.40;;;;;;5069170;28;19916;-71
2022/08/13 01:36:24;;;;;;;;;;;563.20;2406.40;;;;;;5070642;28;20041;-62
2022/08/13 01:38:49;;;;;;;;;;;563.30;2380.80;;;;;;5070483;28;20030;-58
2022/08/13 01:41:15;;;;;;;;;;;563.30;2355.20;;;;;;5070833;28;19908;-70
2022/08/13 01:43:40;;;;;;;;;;;563.30;2380.80;;;;;;5070426;28;19909;-71
2022/08/13 01:46:07;;;;;;;;;;;563.40;2355.20;;;;;;5070656;28;19912;-70
2022/08/13 01:51:24;;;;;;;;;;;563.40;2380.80;;;;;;5048055;28;19923;-71
2022/08/13 01:53:51;;;;;;;;;;;563.30;2432.00;;;;;;5048143;28;19928;-69
2022/08/13 01:56:21;;;;;;;;;;;563.30;2432.00;;;;;;5048558;28;20012;-63
2022/08/13 01:58:48;;;;;;;;;;;563.20;2432.00;;;;;;5048614;28;19933;-65
2022/08/13 02:01:14;;;;;;;;;;;563.20;2432.00;;;;;;5048161;28;20031;-69
2022/08/13 02:03:47;;;;;;;;;;;563.20;2432.00;;;;;;5048277;28;20410;-69
2022/08/13 02:06:12;;;;;;;;;;;563.30;2432.00;;;;;;5048186;28;19909;-71
2022/08/13 02:08:40;;;;;;;;;;;563.20;2432.00;;;;;;5051501;28;20259;-60
2022/08/13 02:11:06;;;;;;;;;;;538.50;2406.40;;;;;;5052127;28;19909;-66
2022/08/13 02:13:32;;;;;;;;;;;538.50;2406.40;;;;;;5051814;28;20429;-70
2022/08/13 02:15:57;;;;;;;;;;;538.50;2406.40;;;;;;5051999;28;19916;-59
2022/08/13 02:18:24;;;;;;;;;;;538.50;2406.40;;;;;;5051760;28;19909;-71
2022/08/13 02:20:51;;;;;;;;;;;538.50;2406.40;;;;;;5051537;28;19913;-70
2022/08/13 02:23:20;;;;;;;;;;;538.50;2406.40;;;;;;5051944;28;19943;-59
2022/08/13 02:25:46;;;;;;;;;;;538.50;2406.40;;;;;;5051761;28;20000;-58
2022/08/13 02:28:14;;;;;;;;;;;538.50;2406.40;;;;;;5061165;28;19908;-58
2022/08/13 02:30:41;;;;;;;;;;;538.40;2406.40;;;;;;5073606;28;19966;-58
2022/08/13 02:33:06;;;;;;;;;;;538.40;2406.40;;;;;;5073783;28;19998;-71
2022/08/13 02:35:35;;;;;;;;;;;538.30;2406.40;;;;;;5073611;28;20358;-58
2022/08/13 02:38:01;;;;;;;;;;;538.20;2406.40;;;;;;5073641;28;19948;-71
2022/08/13 02:43:12;;;;;;;;;;;538.30;2406.40;;;;;;5073496;28;19935;-67
2022/08/13 02:45:38;;;;;;;;;;;538.30;2406.40;;;;;;5073531;28;19909;-71
2022/08/13 02:48:05;;;;;;;;;;;538.20;2406.40;;;;;;5073617;28;20336;-60
2022/08/13 02:50:31;;;;;;;;;;;538.30;2406.40;;;;;;5073191;28;19908;-70
2022/08/13 02:52:57;;;;;;;;;;;538.40;2406.40;;;;;;5073373;28;19935;-65
2022/08/13 02:55:23;;;;;;;;;;;538.40;2406.40;;;;;;5073073;28;19930;-70
2022/08/13 02:57:49;;;;;;;;;;;538.40;2406.40;;;;;;5073449;28;19936;-58
2022/08/13 03:00:16;;;;;;;;;;;538.50;2406.40;;;;;;5072943;28;19913;-58
2022/08/13 03:02:44;;;;;;;;;;;538.40;2406.40;;;;;;5073129;28;19913;-69
2022/08/13 03:05:11;;;;;;;;;;;538.40;2406.40;;;;;;5073042;28;19915;-58
2022/08/13 03:07:41;;;;;;;;;;;538.40;2406.40;;;;;;5073185;28;20317;-61
2022/08/13 03:10:13;;;;;;;;;;;538.40;2406.40;;;;;;5073147;28;19913;-71
2022/08/13 03:12:44;;;;;;;;;;;538.40;2406.40;;;;;;5072834;28;19920;-59
2022/08/13 03:15:11;;;;;;;;;;;538.30;2406.40;;;;;;5072824;28;19908;-70
2022/08/13 03:17:37;;;;;;;;;;;538.30;2406.40;;;;;;5072595;28;19927;-72
2022/08/13 03:20:07;;;;;;;;;;;538.20;2406.40;;;;;;5072890;28;19962;-68
2022/08/13 03:22:45;;;;;;;;;;;538.00;2406.40;;;;;;5072635;28;19915;-72
2022/08/13 03:25:11;;;;;;;;;;;538.00;2406.40;;;;;;5072686;28;20369;-71
2022/08/13 03:27:36;;;;;;;;;;;538.00;2406.40;;;;;;5072619;28;19912;-71
2022/08/13 03:30:02;;;;;;;;;;;538.00;2406.40;;;;;;5072249;28;19962;-71
2022/08/13 03:32:28;;;;;;;;;;;537.90;2406.40;;;;;;5072547;28;19922;-71
2022/08/13 03:34:55;;;;;;;;;;;537.90;2406.40;;;;;;5072605;28;19952;-71
2022/08/13 03:37:21;;;;;;;;;;;537.90;2406.40;;;;;;5072212;28;20377;-72
2022/08/13 03:39:46;;;;;;;;;;;537.70;2406.40;;;;;;5072411;28;19958;-67
2022/08/13 03:42:12;;;;;;;;;;;537.90;2406.40;;;;;;5072178;28;20283;-70
2022/08/13 03:44:38;;;;;;;;;;;537.90;2406.40;;;;;;5072605;28;19954;-65
2022/08/13 03:47:04;;;;;;;;;;;537.80;2406.40;;;;;;5072199;28;19962;-72
2022/08/13 03:49:36;;;;;;;;;;;537.70;2406.40;;;;;;5072001;28;20424;-70
2022/08/13 03:52:02;;;;;;;;;;;537.60;2406.40;;;;;;5071839;28;19924;-71
2022/08/13 03:54:27;;;;;;;;;;;512.90;2380.80;;;;;;5072168;28;19909;-71
2022/08/13 03:56:53;;;;;;;;;;;512.70;2380.80;;;;;;5071950;28;20266;-58
2022/08/13 03:59:19;;;;;;;;;;;512.70;2380.80;;;;;;5071768;28;19908;-60
2022/08/13 04:01:47;;;;;;;;;;;512.60;2380.80;;;;;;5071960;28;19928;-71
2022/08/13 04:04:12;;;;;;;;;;;512.60;2380.80;;;;;;5071741;28;19919;-61
2022/08/13 04:06:38;;;;;;;;;;;512.50;2380.80;;;;;;5072015;28;19909;-61
2022/08/13 04:09:04;;;;;;;;;;;512.40;2380.80;;;;;;5072080;28;19943;-71
2022/08/13 04:11:30;;;;;;;;;;;512.50;2380.80;;;;;;5071623;28;20358;-71
2022/08/13 04:13:55;;;;;;;;;;;512.60;2380.80;;;;;;5071804;28;19909;-60
2022/08/13 04:16:22;;;;;;;;;;;512.60;2380.80;;;;;;5071556;28;19909;-71
2022/08/13 04:18:49;;;;;;;;;;;512.60;2380.80;;;;;;5071964;28;19908;-67
2022/08/13 04:21:15;;;;;;;;;;;512.70;2380.80;;;;;;5071755;28;19908;-71
2022/08/13 04:23:43;;;;;;;;;;;512.70;2380.80;;;;;;5071568;28;19995;-64
2022/08/13 04:26:14;;;;;;;;;;;512.60;2380.80;;;;;;5071685;28;19909;-72
2022/08/13 04:28:41;;;;;;;;;;;512.70;2380.80;;;;;;5071367;28;20392;-63
2022/08/13 04:31:09;;;;;;;;;;;512.70;2380.80;;;;;;5070752;28;19916;-60
2022/08/13 04:33:36;;;;;;;;;;;512.90;2380.80;;;;;;5071599;28;20435;-64
2022/08/13 04:36:02;;;;;;;;;;;512.90;2380.80;;;;;;5071392;28;19908;-73
2022/08/13 04:38:28;;;;;;;;;;;512.90;2380.80;;;;;;5071390;28;19908;-62
2022/08/13 04:40:54;;;;;;;;;;;512.90;2380.80;;;;;;5071304;28;19909;-70
2022/08/13 04:43:19;;;;;;;;;;;512.80;2380.80;;;;;;5071162;28;19967;-62
2022/08/13 04:45:45;;;;;;;;;;;512.70;2380.80;;;;;;5071376;28;19934;-72
2022/08/13 04:48:13;;;;;;;;;;;512.70;2380.80;;;;;;5071015;28;19915;-73
2022/08/13 04:50:39;;;;;;;;;;;512.70;2380.80;;;;;;5071333;28;20410;-70
2022/08/13 04:53:25;;;;;;;;;;;512.50;2380.80;;;;;;5071077;28;19917;-71
2022/08/13 04:55:51;;;;;;;;;;;512.60;2380.80;;;;;;5070336;28;20362;-70
2022/08/13 04:58:17;;;;;;;;;;;512.70;2380.80;;;;;;5071123;28;19909;-70
2022/08/13 05:00:44;;;;;;;;;;;512.80;2380.80;;;;;;5070730;28;19920;-72
2022/08/13 05:03:14;;;;;;;;;;;512.90;2380.80;;;;;;5071105;28;20378;-71
2022/08/13 05:05:40;;;;;;;;;;;537.70;2406.40;;;;;;5070196;28;19913;-71
2022/08/13 05:08:07;;;;;;;;;;;537.90;2406.40;;;;;;5070597;28;19915;-67
2022/08/13 05:10:37;;;;;;;;;;;538.00;2406.40;;;;;;5070296;28;20310;-72
2022/08/13 05:13:04;;;;;;;;;;;538.20;2406.40;;;;;;5070384;28;19916;-68
2022/08/13 05:15:30;;;;;;;;;;;538.30;2406.40;;;;;;5070159;28;20310;-71
2022/08/13 05:17:55;;;;;;;;;;;538.40;2406.40;;;;;;5070982;28;19909;-65
2022/08/13 05:20:21;;;;;;;;;;;538.30;2406.40;;;;;;5070927;28;19913;-70
2022/08/13 05:22:46;;;;;;;;;;;538.30;2406.40;;;;;;5070829;28;20006;-67
2022/08/13 05:25:14;;;;;;;;;;;538.40;2406.40;;;;;;5070321;28;19919;-70
2022/08/13 05:27:41;;;;;;;;;;;563.20;2432.00;;;;;;5070674;28;20377;-65
2022/08/13 05:30:07;;;;;;;;;;;538.50;2406.40;;;;;;5070664;28;19985;-70
2022/08/13 05:32:38;;;;;;;;;;;563.20;2432.00;;;;;;5070541;28;20362;-70
2022/08/13 05:35:05;;;;;;;;;;;538.50;2406.40;;;;;;5070512;28;20271;-70
2022/08/13 05:37:31;;;;;;;;;;;538.30;2406.40;;;;;;5070491;28;20382;-70
2022/08/13 05:39:56;;;;;;;;;;;538.10;2406.40;;;;;;5070708;28;19970;-70
2022/08/13 05:42:22;;;;;;;;;;;538.20;2406.40;;;;;;5073825;28;20417;-70
2022/08/13 05:44:48;;;;;;;;;;;538.30;2406.40;;;;;;5074578;28;20343;-70
2022/08/13 05:47:14;;;;;;;;;;;538.30;2406.40;;;;;;5074504;28;20355;-70
2022/08/13 05:49:39;;;;;;;;;;;538.50;2406.40;;;;;;5074344;28;19974;-65
2022/08/13 05:52:05;;;;;;;;;;;538.50;2406.40;;;;;;5074438;28;19912;-71
2022/08/13 05:54:31;;;;;;;;;;;563.30;2432.00;;;;;;5074290;28;19962;-70
2022/08/13 05:56:57;;;;;;;;;;;563.20;2432.00;;;;;;5074433;28;20117;-63
2022/08/13 06:04:52;;;;;;;;;;;563.30;2432.00;;;;;;5074342;28;19963;-68
2022/08/13 06:07:19;;;;;;;;;;;563.40;2432.00;;;;;;5074135;28;19908;-72
2022/08/13 06:09:45;;;;;;;;;;;563.50;2432.00;;;;;;5074131;28;19954;-71
2022/08/13 06:12:11;;;;;;;;;;;563.60;2432.00;;;;;;5073961;28;19917;-70
2022/08/13 06:14:38;;;;;;;;;;;563.60;2432.00;;;;;;5074148;28;19913;-71
2022/08/13 06:17:04;;;;;;;;;;;563.60;2432.00;;;;;;5073863;28;19908;-72
2022/08/13 06:19:32;;;;;;;;;;;563.60;2432.00;;;;;;5073916;28;19954;-64
2022/08/13 06:22:02;;;;;;;;;;;563.70;2432.00;;;;;;5073864;28;19920;-69
2022/08/13 06:24:32;;;;;;;;;;;563.70;2432.00;;;;;;5073903;28;20438;-63
2022/08/13 06:27:00;;;;;;;;;;;563.70;2432.00;;;;;;5074053;28;19916;-68
2022/08/13 06:29:29;;;;;;;;;;;563.90;2432.00;;;;;;5073787;28;19916;-65
2022/08/13 06:31:55;;;;;;;;;;;563.90;2432.00;;;;;;5073223;28;19928;-67
2022/08/13 06:34:22;;;;;;;;;;;564.10;2432.00;;;;;;5073423;28;20011;-64
2022/08/13 06:36:48;;;;;;;;;;;588.80;2432.00;;;;;;5073529;28;20003;-67
2022/08/13 06:39:15;;;;;;;;;;;589.00;2432.00;;;;;;5073432;28;20381;-72
2022/08/13 06:41:42;;;;;;;;;;;589.50;2432.00;;;;;;5073359;28;19962;-74
2022/08/13 06:44:08;;;;;;;;;;;589.70;2432.00;;;;;;5073595;28;19912;-64
2022/08/13 06:46:33;;;;;;;;;;;614.80;2432.00;;;;;;5073529;28;20355;-71
2022/08/13 06:49:00;;;;;;;;;;;615.20;2432.00;;;;;;5073191;28;19931;-67
2022/08/13 06:51:26;;;;;;;;;;;640.30;2432.00;;;;;;5073167;28;19940;-63
2022/08/13 06:53:54;;;;;;;;;;;640.60;2432.00;;;;;;5072498;28;19912;-71
2022/08/13 06:56:21;;;;;;;;;;;640.80;2432.00;;;;;;5073146;28;19908;-70
2022/08/13 06:58:49;;;;;;;;;;;640.80;2432.00;;;;;;5073205;28;19917;-63
2022/08/13 07:01:19;;;;;;;;;;;640.70;2432.00;;;;;;5072973;28;20018;-71
2022/08/13 07:03:46;;;;;;;;;;;640.70;2329.60;;;;;;5073324;28;19959;-63
2022/08/13 07:06:16;;;;;;;;;;;640.80;2304.00;;;;;;5072882;28;19952;-68
2022/08/13 07:08:42;;;;;;;;;;;665.60;2150.40;;;;;;5072870;28;19955;-70
2022/08/13 07:11:23;;;;;;;;;;;665.90;2150.40;;;;;;5073136;28;19912;-65
2022/08/13 07:13:58;;;;;;;;;;;666.10;2099.20;;;;;;5072774;28;20424;-60
2022/08/13 07:16:27;;;;;;;;;;;666.30;2099.20;;;;;;5072977;28;19915;-71
2022/08/13 07:18:53;;;;;;;;;;;666.40;2073.60;;;;;;5073070;28;19935;-68
2022/08/13 07:21:22;;;;;;;;;;;666.20;2073.60;;;;;;5072664;28;20358;-62
2022/08/13 07:23:49;;;;;;;;;;;665.90;2099.20;;;;;;5072951;28;20370;-61
2022/08/13 07:26:16;;;;;;;;;;;666.30;2048.00;;;;;;5073002;28;19966;-71
2022/08/13 07:28:44;;;;;;;;;;;666.30;2073.60;;;;;;5072468;28;20417;-71
2022/08/13 07:31:10;;;;;;;;;;;691.20;2048.00;;;;;;5072346;28;19913;-61
2022/08/13 07:33:37;;;;;;;;;;;691.40;1996.80;;;;;;5072451;28;19920;-71
2022/08/13 07:36:04;;;;;;;;;;;666.30;1996.80;;;;;;5072291;28;19915;-70
2022/08/13 07:38:31;;;;;;;;;;;666.20;1996.80;;;;;;5072247;28;19908;-58
2022/08/13 07:40:58;;;;;;;;;;;665.90;2022.40;;;;;;5072362;28;20427;-61
2022/08/13 07:43:24;;;;;;;;;;;691.40;1971.20;;;;;;5072517;28;19909;-58
2022/08/13 07:46:22;;;;;;;;;;;768.10;1766.40;;;;;;5072034;28;19913;-59
2022/08/13 07:48:52;;;;;;;;;;;819.70;1587.20;;;;;;5010716;28;19914;-68
2022/08/13 07:51:22;;;;;;;;;;;845.40;1510.40;;;;;;5010459;28;19965;-71
2022/08/13 07:53:53;;;;;;;;;;;845.70;1484.80;;;;;;5010320;28;19940;-71
2022/08/13 07:56:28;;;;;;;;;;;896.00;1356.80;;;;;;5010101;28;20000;-65
2022/08/13 07:58:55;;;;;;;;;;;922.30;1305.60;;;;;;5010087;28;20008;-69
2022/08/13 08:01:20;;;;;;;;;;;972.80;1254.40;;;;;;5009665;28;19917;-67
2022/08/13 08:03:47;;;;;;;;;;;998.50;1177.60;;;;;;4989693;28;19929;-61
2022/08/13 08:06:17;;;;;;;;;;;973.10;1228.80;;;;;;5006629;28;20327;-70
2022/08/13 08:08:44;;;;;;;;;;;922.20;1254.40;;;;;;5007556;28;19948;-61
2022/08/13 08:11:10;;;;;;;;;;;871.10;1305.60;;;;;;5007440;28;19913;-61
2022/08/13 08:13:35;;;;;;;;;;;870.90;1331.20;;;;;;5007480;28;19979;-60
2022/08/13 08:16:02;;;;;;;;;;;845.00;1382.40;;;;;;5006838;28;20281;-61
2022/08/13 08:18:28;;;;;;;;;;;819.60;1408.00;;;;;;5007432;28;19909;-61
2022/08/13 08:21:04;;;;;;;;;;;819.40;1408.00;;;;;;5007463;28;20012;-60
2022/08/13 08:23:31;;;;;;;;;;;819.90;1382.40;;;;;;5015460;28;19914;-66
2022/08/13 08:25:57;;;;;;;;;;;820.10;1408.00;;;;;;5069369;28;19916;-65
2022/08/13 08:28:25;;;;;;;;;;;819.80;1408.00;;;;;;5068597;28;19961;-60
2022/08/13 08:30:50;;;;;;;;;;;793.70;1484.80;;;;;;5069054;28;19913;-60
2022/08/13 08:33:17;;;;;;;;;;;768.10;1510.40;;;;;;5069343;28;20389;-60
2022/08/13 08:35:42;;;;;;;;;;;768.80;1484.80;;;;;;5069190;28;19916;-59
2022/08/13 08:43:39;;;;;;;;;;;743.30;1536.00;;;;;;5069293;28;19936;-59
2022/08/13 08:46:07;;;;;;;;;;;743.10;1561.60;;;;;;5069089;28;19995;-63
2022/08/13 08:48:36;;;;;;;;;;;742.80;1587.20;;;;;;5069005;28;19913;-59
2022/08/13 08:51:01;;;;;;;;;;;742.40;1638.40;;;;;;5068784;28;19967;-59
2022/08/13 08:53:28;;;;;;;;;;;717.50;1612.80;;;;;;5068938;28;20353;-59
2022/08/13 08:55:54;;;;;;;;;;;717.10;1638.40;;;;;;5068615;28;19966;-59
2022/08/13 08:58:21;;;;;;;;;;;691.70;1689.60;;;;;;5068951;28;19912;-60
2022/08/13 09:00:48;;;;;;;;;;;691.20;1715.20;;;;;;5068894;28;19944;-59
2022/08/13 09:03:17;;;;;;;;;;;691.20;1715.20;;;;;;5068838;28;19916;-61
2022/08/13 09:05:45;;;;;;;;;;;691.30;1715.20;;;;;;5068660;28;20351;-62
2022/08/13 09:08:11;;;;;;;;;;;691.20;1715.20;;;;;;5068262;28;19909;-60
2022/08/13 09:10:36;;;;;;;;;;;666.40;1715.20;;;;;;5068901;28;19915;-59
2022/08/13 09:13:02;;;;;;;;;;;666.20;1766.40;;;;;;5068662;28;19927;-59
2022/08/13 09:15:29;;;;;;;;;;;666.00;1766.40;;;;;;5069408;28;19987;-61
2022/08/13 09:17:56;;;;;;;;;;;691.20;1740.80;;;;;;5075636;28;19908;-60
2022/08/13 09:20:23;;;;;;;;;;;691.30;1740.80;;;;;;5074798;28;19975;-62
2022/08/13 09:23:00;;;;;;;;;;;691.20;1715.20;;;;;;5075700;28;19963;-60
2022/08/13 09:25:26;;;;;;;;;;;691.20;1715.20;;;;;;5074970;28;19932;-60
2022/08/13 09:27:53;;;;;;;;;;;665.90;1766.40;;;;;;5074767;28;19995;-61
2022/08/13 09:30:19;;;;;;;;;;;666.00;1766.40;;;;;;5074912;28;19958;-59
2022/08/13 09:32:46;;;;;;;;;;;666.10;1766.40;;;;;;5074858;28;19924;-59
2022/08/13 09:35:12;;;;;;;;;;;691.70;1715.20;;;;;;5074201;28;19918;-63
2022/08/13 09:37:39;;;;;;;;;;;716.80;1715.20;;;;;;5074856;28;19912;-60
2022/08/13 09:40:08;;;;;;;;;;;716.80;1689.60;;;;;;5073209;28;19916;-62
2022/08/13 09:42:57;;;;;;;;;;;717.10;1664.00;;;;;;5075287;28;20019;-59
2022/08/13 09:45:27;;;;;;;;;;;717.50;1664.00;;;;;;5075172;28;19923;-60
2022/08/13 09:47:53;;;;;;;;;;;717.70;1638.40;;;;;;5074620;28;19908;-60
2022/08/13 09:50:21;;;;;;;;;;;717.70;1612.80;;;;;;5075221;28;19915;-65
2022/08/13 09:52:47;;;;;;;;;;;717.00;1689.60;;;;;;5075107;28;19948;-60
2022/08/13 09:55:13;;;;;;;;;;;717.70;1638.40;;;;;;5075046;28;20305;-60
2022/08/13 09:57:59;;;;;;;;;;;742.50;1664.00;;;;;;5075238;28;19935;-59
2022/08/13 10:00:28;;;;;;;;;;;743.00;1612.80;;;;;;5074493;28;20003;-61
2022/08/13 10:03:04;;;;;;;;;;;743.10;1587.20;;;;;;5075204;28;19920;-60
2022/08/13 10:05:34;;;;;;;;;;;743.30;1587.20;;;;;;5074870;28;19965;-60
2022/08/13 10:08:03;;;;;;;;;;;743.20;1587.20;;;;;;5074694;28;19915;-62
2022/08/13 10:10:29;;;;;;;;;;;742.90;1612.80;;;;;;5075129;28;19922;-62
2022/08/13 10:12:55;;;;;;;;;;;742.70;1612.80;;;;;;5074686;28;19999;-61
2022/08/13 10:15:20;;;;;;;;;;;742.80;1612.80;;;;;;5074963;28;19909;-61
2022/08/13 10:17:51;;;;;;;;;;;742.60;1587.20;;;;;;5075126;28;19930;-61
2022/08/13 10:20:21;;;;;;;;;;;742.50;1612.80;;;;;;5076745;28;19913;-64
2022/08/13 10:22:48;;;;;;;;;;;717.60;1612.80;;;;;;5076373;28;19912;-61
2022/08/13 10:25:14;;;;;;;;;;;742.50;1612.80;;;;;;5076831;28;19909;-61
2022/08/13 10:27:40;;;;;;;;;;;742.40;1638.40;;;;;;5074519;28;19954;-61
2022/08/13 10:30:06;;;;;;;;;;;742.50;1664.00;;;;;;5073666;28;19913;-61
2022/08/13 10:32:31;;;;;;;;;;;742.50;1638.40;;;;;;5073390;28;19964;-60
2022/08/13 10:35:00;;;;;;;;;;;717.30;1638.40;;;;;;5073850;28;19912;-61
2022/08/13 10:37:28;;;;;;;;;;;717.20;1664.00;;;;;;5073723;28;19908;-60
2022/08/13 10:39:57;;;;;;;;;;;692.10;1689.60;;;;;;5073402;28;19908;-61
2022/08/13 10:42:24;;;;;;;;;;;692.00;1689.60;;;;;;5073491;28;19991;-61
2022/08/13 10:44:51;;;;;;;;;;;716.80;1715.20;;;;;;5072900;28;19970;-61
2022/08/13 10:47:26;;;;;;;;;;;691.80;1715.20;;;;;;5072090;28;19912;-61
2022/08/13 10:49:52;;;;;;;;;;;691.90;1715.20;;;;;;5069495;28;19934;-61
2022/08/13 10:52:18;;;;;;;;;;;692.10;1689.60;;;;;;5071792;28;19920;-61
2022/08/13 10:54:45;;;;;;;;;;;717.00;1715.20;;;;;;5072396;28;19912;-61
2022/08/13 10:57:11;;;;;;;;;;;716.90;1689.60;;;;;;5071653;28;19986;-62
2022/08/13 10:59:36;;;;;;;;;;;692.10;1689.60;;;;;;5071041;28;19908;-63
2022/08/13 11:02:06;;;;;;;;;;;692.00;1689.60;;;;;;5070800;28;20298;-60
2022/08/13 11:04:36;;;;;;;;;;;692.10;1689.60;;;;;;5070937;28;19912;-61
2022/08/13 11:07:02;;;;;;;;;;;692.00;1715.20;;;;;;5070345;28;20015;-61
2022/08/13 11:09:28;;;;;;;;;;;716.80;1715.20;;;;;;5070995;28;19947;-60
2022/08/13 11:11:55;;;;;;;;;;;716.90;1715.20;;;;;;5069264;28;19970;-60
2022/08/13 11:14:24;;;;;;;;;;;717.20;1689.60;;;;;;5071450;28;20263;-61
2022/08/13 11:16:56;;;;;;;;;;;716.80;1715.20;;;;;;5072609;28;20354;-61
2022/08/13 11:19:25;;;;;;;;;;;691.90;1715.20;;;;;;5072083;28;20374;-60
2022/08/13 11:21:51;;;;;;;;;;;691.70;1740.80;;;;;;5072665;28;19916;-60
2022/08/13 11:24:18;;;;;;;;;;;691.50;1740.80;;;;;;5072524;28;20277;-60
2022/08/13 11:26:45;;;;;;;;;;;666.50;1766.40;;;;;;5072652;28;19909;-60
2022/08/13 11:29:11;;;;;;;;;;;691.60;1740.80;;;;;;5072552;28;19917;-60
2022/08/13 11:31:36;;;;;;;;;;;691.60;1766.40;;;;;;5072491;28;20385;-61
2022/08/13 11:34:02;;;;;;;;;;;692.10;1715.20;;;;;;5072460;28;20039;-61
2022/08/13 11:36:28;;;;;;;;;;;717.20;1715.20;;;;;;5072585;28;19909;-61
2022/08/13 11:38:53;;;;;;;;;;;717.10;1689.60;;;;;;5072162;28;19909;-61
2022/08/13 11:41:19;;;;;;;;;;;717.40;1689.60;;;;;;5072306;28;19955;-60
2022/08/13 11:43:45;;;;;;;;;;;717.40;1689.60;;;;;;5072420;28;19962;-61
2022/08/13 11:46:11;;;;;;;;;;;717.20;1715.20;;;;;;5072094;28;19916;-61
2022/08/13 11:48:38;;;;;;;;;;;716.80;1715.20;;;;;;5072412;28;19912;-60
2022/08/13 11:51:04;;;;;;;;;;;717.20;1689.60;;;;;;5072354;28;19923;-61
2022/08/13 11:53:29;;;;;;;;;;;742.40;1664.00;;;;;;5071811;28;20342;-61
2022/08/13 11:55:55;;;;;;;;;;;742.60;1664.00;;;;;;5072116;28;19909;-61
2022/08/13 11:58:21;;;;;;;;;;;742.40;1664.00;;;;;;5070651;28;19967;-61
2022/08/13 12:00:47;;;;;;;;;;;717.50;1664.00;;;;;;5070267;28;19920;-61
2022/08/13 12:03:12;;;;;;;;;;;717.20;1689.60;;;;;;5070327;28;19925;-62
2022/08/13 12:05:38;;;;;;;;;;;716.90;1689.60;;;;;;5069571;28;19909;-60
2022/08/13 12:08:12;;;;;;;;;;;716.90;1715.20;;;;;;5070404;28;20058;-60
2022/08/13 12:10:37;;;;;;;;;;;717.10;1715.20;;;;;;5070598;28;19917;-60
2022/08/13 12:13:03;;;;;;;;;;;717.00;1715.20;;;;;;5070383;28;20007;-60
2022/08/13 12:15:28;;;;;;;;;;;717.20;1715.20;;;;;;5070363;28;20458;-60
2022/08/13 12:17:54;;;;;;;;;;;717.40;1689.60;;;;;;5070588;28;19916;-60
2022/08/13 12:20:20;;;;;;;;;;;717.40;1689.60;;;;;;5070206;28;20281;-61
2022/08/13 12:22:50;;;;;;;;;;;717.40;1689.60;;;;;;5067659;28;20024;-60
2022/08/13 12:25:16;;;;;;;;;;;717.20;1715.20;;;;;;5070409;28;19915;-62
2022/08/13 12:27:41;;;;;;;;;;;717.30;1715.20;;;;;;5069903;28;20007;-62
2022/08/13 12:30:07;;;;;;;;;;;717.00;1715.20;;;;;;5070186;28;19938;-62
2022/08/13 12:32:33;;;;;;;;;;;717.20;1715.20;;;;;;5070099;28;19973;-65
2022/08/13 12:34:59;;;;;;;;;;;717.40;1715.20;;;;;;5068506;28;19912;-61
2022/08/13 12:37:24;;;;;;;;;;;717.40;1689.60;;;;;;5071656;28;19915;-61
2022/08/13 12:39:51;;;;;;;;;;;717.70;1689.60;;;;;;5076663;28;19908;-62
2022/08/13 12:42:16;;;;;;;;;;;717.20;1715.20;;;;;;5073408;28;19909;-62
2022/08/13 12:44:42;;;;;;;;;;;692.10;1715.20;;;;;;5071455;28;20004;-61
2022/08/13 12:47:08;;;;;;;;;;;716.80;1740.80;;;;;;5071431;28;20381;-61
2022/08/13 12:49:33;;;;;;;;;;;692.10;1740.80;;;;;;5071320;28;19913;-61
2022/08/13 12:51:59;;;;;;;;;;;692.10;1740.80;;;;;;5069626;28;20320;-61
2022/08/13 12:54:25;;;;;;;;;;;691.80;1740.80;;;;;;5068610;28;20426;-61
2022/08/13 12:56:51;;;;;;;;;;;691.90;1740.80;;;;;;5068562;28;19916;-62
2022/08/13 12:59:16;;;;;;;;;;;691.80;1740.80;;;;;;5069269;28;20248;-61
2022/08/13 13:01:42;;;;;;;;;;;691.90;1766.40;;;;;;5068278;28;20003;-61
2022/08/13 13:04:07;;;;;;;;;;;691.90;1766.40;;;;;;5068970;28;19916;-61
2022/08/13 13:06:33;;;;;;;;;;;716.80;1740.80;;;;;;5068449;28;19913;-61
2022/08/13 13:08:59;;;;;;;;;;;692.10;1715.20;;;;;;5068706;28;19963;-61
2022/08/13 13:11:24;;;;;;;;;;;716.80;1715.20;;;;;;5068466;28;20015;-61
2022/08/13 13:13:50;;;;;;;;;;;691.90;1740.80;;;;;;5069051;28;19943;-61
2022/08/13 13:16:16;;;;;;;;;;;691.40;1792.00;;;;;;5068895;28;20350;-61
2022/08/13 13:18:42;;;;;;;;;;;691.70;1766.40;;;;;;5068711;28;19908;-61
2022/08/13 13:21:08;;;;;;;;;;;691.70;1766.40;;;;;;5068537;28;19916;-60
2022/08/13 13:23:39;;;;;;;;;;;691.60;1740.80;;;;;;5068698;28;19909;-60
2022/08/13 13:26:05;;;;;;;;;;;691.60;1766.40;;;;;;5068791;28;19916;-60
2022/08/13 13:28:31;;;;;;;;;;;691.40;1766.40;;;;;;5068502;28;20215;-60
2022/08/13 13:30:56;;;;;;;;;;;691.40;1792.00;;;;;;5068853;28;19920;-60
2022/08/13 13:33:23;;;;;;;;;;;691.50;1766.40;;;;;;5068038;28;20525;-60
2022/08/13 13:35:50;;;;;;;;;;;691.40;1792.00;;;;;;5068738;28;20418;-60
2022/08/13 13:38:17;;;;;;;;;;;691.40;1792.00;;;;;;5068705;28;20282;-60
2022/08/13 13:40:44;;;;;;;;;;;691.40;1792.00;;;;;;5068449;28;19915;-60
2022/08/13 13:43:10;;;;;;;;;;;666.20;1843.20;;;;;;5068431;28;19909;-61
2022/08/13 13:45:36;;;;;;;;;;;666.20;1843.20;;;;;;5068270;28;19912;-61
2022/08/13 13:48:15;;;;;;;;;;;666.00;1868.80;;;;;;5068345;28;19927;-60
2022/08/13 13:50:40;;;;;;;;;;;666.30;1843.20;;;;;;5068455;28;19919;-61
2022/08/13 13:53:07;;;;;;;;;;;666.40;1843.20;;;;;;5068480;28;20270;-61
2022/08/13 13:55:32;;;;;;;;;;;666.50;1817.60;;;;;;5068225;28;19908;-61
2022/08/13 13:57:58;;;;;;;;;;;666.40;1817.60;;;;;;5068747;28;19908;-61
2022/08/13 14:00:23;;;;;;;;;;;666.50;1817.60;;;;;;5067754;28;19982;-61
2022/08/13 14:02:50;;;;;;;;;;;691.20;1792.00;;;;;;5069067;28;19928;-61
2022/08/13 14:05:16;;;;;;;;;;;666.40;1817.60;;;;;;5072382;28;20266;-61